Time;durP1;ratioP1;P1;durP2;ratioP2;P2;SDS_P1;SDS_P2;PMS_P1;PMS_P2;Temp;Humidity;BMP_temperature;BMP_pressure;BME280_temperature;BME280_humidity;BME280_pressure;Samples;Min_cycle;Max_cycle;Signal;HPM_P1;HPM_P2
2022/10/30 00:00:20;;;;;;;357.93;177.73;;;;;;;;;;5002063;28;20187;-70
2022/10/30 00:02:47;;;;;;;372.63;188.13;;;;;;;;;;5017171;28;20215;-70
2022/10/30 00:05:13;;;;;;;394.17;205.40;;;;;;;;;;5010626;28;20210;-70
2022/10/30 00:07:39;;;;;;;464.10;246.00;;;;;;;;;;5004077;28;20692;-70
2022/10/30 00:10:06;;;;;;;365.17;184.43;;;;;;;;;;5022015;28;20219;-70
2022/10/30 00:12:32;;;;;;;393.30;201.57;;;;;;;;;;5020283;28;20181;-70
2022/10/30 00:14:58;;;;;;;350.23;175.63;;;;;;;;;;5031590;28;20636;-71
2022/10/30 00:17:24;;;;;;;386.53;194.90;;;;;;;;;;5009014;28;20262;-70
2022/10/30 00:19:50;;;;;;;386.93;197.20;;;;;;;;;;4991531;28;20223;-70
2022/10/30 00:22:16;;;;;;;356.30;178.13;;;;;;;;;;5003847;28;20266;-70
2022/10/30 00:24:42;;;;;;;395.03;199.30;;;;;;;;;;5006202;28;20407;-70
2022/10/30 00:27:08;;;;;;;400.90;206.07;;;;;;;;;;4984353;28;20216;-70
2022/10/30 00:29:34;;;;;;;378.53;189.13;;;;;;;;;;4986962;28;20227;-70
2022/10/30 00:32:00;;;;;;;367.00;184.73;;;;;;;;;;5008746;28;20609;-70
2022/10/30 00:34:26;;;;;;;398.07;204.73;;;;;;;;;;5009660;28;20407;-70
2022/10/30 00:36:51;;;;;;;374.23;186.67;;;;;;;;;;4991608;28;20613;-70
2022/10/30 00:39:17;;;;;;;390.90;194.03;;;;;;;;;;4990995;28;20181;-71
2022/10/30 00:41:43;;;;;;;419.77;210.50;;;;;;;;;;4988662;28;20228;-70
2022/10/30 00:44:28;;;;;;;388.37;197.37;;;;;;;;;;4989120;28;20235;-70
2022/10/30 00:46:54;;;;;;;376.53;190.80;;;;;;;;;;4985490;28;20255;-70
2022/10/30 00:49:20;;;;;;;365.87;181.63;;;;;;;;;;4987189;28;20353;-70
2022/10/30 00:51:48;;;;;;;358.90;177.73;;;;;;;;;;4994035;28;20220;-70
2022/10/30 00:54:15;;;;;;;373.90;188.67;;;;;;;;;;5004497;28;20185;-70
2022/10/30 00:56:42;;;;;;;376.67;189.47;;;;;;;;;;5015824;28;20290;-71
2022/10/30 00:59:10;;;;;;;373.13;187.60;;;;;;;;;;5017602;28;20223;-70
2022/10/30 01:01:37;;;;;;;397.63;198.07;;;;;;;;;;5021743;28;20223;-70
2022/10/30 01:04:04;;;;;;;385.80;191.67;;;;;;;;;;5021953;28;20900;-70
2022/10/30 01:06:32;;;;;;;388.93;194.83;;;;;;;;;;5009574;28;20296;-70
2022/10/30 01:08:58;;;;;;;365.83;181.30;;;;;;;;;;4993195;28;20208;-70
2022/10/30 01:11:24;;;;;;;391.63;195.00;;;;;;;;;;5013331;28;20219;-70
2022/10/30 01:13:52;;;;;;;428.83;216.70;;;;;;;;;;5001665;28;20247;-70
2022/10/30 01:16:43;;;;;;;332.73;160.00;;;;;;;;;;5027174;28;20239;-70
2022/10/30 01:19:18;;;;;;;390.53;194.40;;;;;;;;;;5025596;28;20220;-70
2022/10/30 01:21:49;;;;;;;368.83;182.27;;;;;;;;;;5023915;28;20243;-70
2022/10/30 01:24:24;;;;;;;387.80;193.80;;;;;;;;;;4992960;28;20185;-70
2022/10/30 01:26:50;;;;;;;375.40;186.13;;;;;;;;;;5033765;28;20320;-70
2022/10/30 01:29:25;;;;;;;367.07;183.57;;;;;;;;;;5011842;28;20725;-70
2022/10/30 01:31:54;;;;;;;409.67;210.47;;;;;;;;;;5019839;28;20226;-70
2022/10/30 01:34:33;;;;;;;412.43;210.37;;;;;;;;;;5006879;28;20214;-70
2022/10/30 01:37:07;;;;;;;355.20;176.97;;;;;;;;;;5013153;28;20772;-70
2022/10/30 01:39:37;;;;;;;376.57;188.70;;;;;;;;;;5034034;28;20627;-70
2022/10/30 01:42:09;;;;;;;400.77;204.57;;;;;;;;;;5005499;28;20185;-70
2022/10/30 01:44:36;;;;;;;401.80;205.37;;;;;;;;;;4988126;28;20220;-70
2022/10/30 01:47:12;;;;;;;382.17;193.80;;;;;;;;;;4998807;28;20910;-70
2022/10/30 01:49:47;;;;;;;374.43;185.60;;;;;;;;;;5009151;28;20212;-70
2022/10/30 01:52:16;;;;;;;408.27;210.60;;;;;;;;;;5002662;28;20403;-70
2022/10/30 01:54:54;;;;;;;346.13;170.37;;;;;;;;;;5000775;28;20227;-70
2022/10/30 01:57:29;;;;;;;398.33;204.33;;;;;;;;;;5020617;28;20304;-70
2022/10/30 02:00:08;;;;;;;366.13;183.20;;;;;;;;;;5002125;28;20302;-70
2022/10/30 02:02:34;;;;;;;347.03;170.27;;;;;;;;;;4994772;28;20747;-70
2022/10/30 02:05:00;;;;;;;425.80;216.73;;;;;;;;;;4993969;28;20216;-70
2022/10/30 02:07:26;;;;;;;371.70;184.57;;;;;;;;;;4984840;28;20212;-70
2022/10/30 02:09:53;;;;;;;410.27;204.23;;;;;;;;;;4995678;28;20305;-70
2022/10/30 02:12:20;;;;;;;399.00;202.83;;;;;;;;;;4977706;28;20196;-70
2022/10/30 02:14:47;;;;;;;412.80;207.03;;;;;;;;;;4991979;28;20685;-70
2022/10/30 02:17:14;;;;;;;374.40;183.83;;;;;;;;;;4989150;28;20212;-70
2022/10/30 02:19:40;;;;;;;378.43;184.13;;;;;;;;;;4997228;28;20573;-70
2022/10/30 02:22:05;;;;;;;395.43;193.47;;;;;;;;;;4988356;28;20270;-70
2022/10/30 02:24:32;;;;;;;383.10;191.67;;;;;;;;;;4987152;28;20453;-70
2022/10/30 02:26:58;;;;;;;339.33;166.43;;;;;;;;;;5000386;28;20870;-70
2022/10/30 02:29:24;;;;;;;442.50;224.40;;;;;;;;;;4978744;28;20239;-70
2022/10/30 02:31:50;;;;;;;354.93;172.63;;;;;;;;;;4999631;28;20310;-70
2022/10/30 02:34:15;;;;;;;359.13;171.97;;;;;;;;;;5006476;28;20307;-70
2022/10/30 02:36:41;;;;;;;384.23;188.17;;;;;;;;;;4990358;28;20220;-70
2022/10/30 02:39:07;;;;;;;367.03;177.13;;;;;;;;;;4984867;28;21118;-70
2022/10/30 02:41:33;;;;;;;449.87;229.03;;;;;;;;;;4982041;28;21138;-70
2022/10/30 02:44:00;;;;;;;324.97;152.47;;;;;;;;;;5003503;28;20622;-70
2022/10/30 02:46:26;;;;;;;374.40;184.03;;;;;;;;;;5004956;28;20561;-70
2022/10/30 02:48:52;;;;;;;401.03;198.90;;;;;;;;;;4990754;28;20243;-70
2022/10/30 02:51:18;;;;;;;425.00;217.97;;;;;;;;;;4982829;28;20621;-70
2022/10/30 02:53:44;;;;;;;376.80;183.57;;;;;;;;;;4992131;28;20216;-70
2022/10/30 02:56:11;;;;;;;407.37;203.90;;;;;;;;;;4983551;28;20788;-70
2022/10/30 02:58:37;;;;;;;388.17;194.23;;;;;;;;;;4976234;28;20312;-70
2022/10/30 03:01:10;;;;;;;352.07;170.50;;;;;;;;;;5017663;28;20786;-70
2022/10/30 03:03:36;;;;;;;385.93;191.67;;;;;;;;;;4998856;28;20227;-70
2022/10/30 03:06:03;;;;;;;385.00;186.87;;;;;;;;;;4988403;28;20711;-71
2022/10/30 03:08:29;;;;;;;366.10;178.40;;;;;;;;;;4984508;28;20874;-71
2022/10/30 03:10:59;;;;;;;390.00;194.87;;;;;;;;;;4988511;28;20304;-70
2022/10/30 03:13:26;;;;;;;416.43;208.73;;;;;;;;;;4984813;28;20216;-70
2022/10/30 03:15:51;;;;;;;362.27;172.67;;;;;;;;;;4984584;28;20364;-71
2022/10/30 03:18:17;;;;;;;403.80;199.13;;;;;;;;;;4992972;28;20192;-70
2022/10/30 03:20:43;;;;;;;366.67;178.43;;;;;;;;;;4993147;28;20227;-70
2022/10/30 03:23:09;;;;;;;375.03;184.40;;;;;;;;;;5006599;28;20216;-71
2022/10/30 03:25:35;;;;;;;398.63;196.57;;;;;;;;;;4984593;28;20219;-71
2022/10/30 03:28:01;;;;;;;433.07;221.13;;;;;;;;;;4978083;28;20229;-71
2022/10/30 03:30:27;;;;;;;397.47;197.30;;;;;;;;;;4999221;28;20224;-71
2022/10/30 03:32:53;;;;;;;409.50;205.97;;;;;;;;;;4998898;28;20195;-71
2022/10/30 03:35:19;;;;;;;395.30;195.30;;;;;;;;;;4985215;28;20216;-71
2022/10/30 03:37:45;;;;;;;369.53;177.07;;;;;;;;;;4987495;28;20235;-70
2022/10/30 03:40:11;;;;;;;397.53;197.50;;;;;;;;;;4992124;28;20600;-71
2022/10/30 03:42:40;;;;;;;358.10;173.10;;;;;;;;;;4987237;28;20195;-71
2022/10/30 03:45:06;;;;;;;374.87;182.00;;;;;;;;;;4999204;28;20192;-71
2022/10/30 03:47:32;;;;;;;377.87;185.03;;;;;;;;;;4992568;28;20298;-70
2022/10/30 03:49:58;;;;;;;406.37;204.13;;;;;;;;;;4995410;28;21479;-71
2022/10/30 03:52:24;;;;;;;375.97;184.17;;;;;;;;;;4990502;28;20213;-70
2022/10/30 03:54:50;;;;;;;382.60;188.50;;;;;;;;;;4987272;28;20283;-70
2022/10/30 03:57:15;;;;;;;368.53;177.80;;;;;;;;;;5000624;28;20290;-70
2022/10/30 03:59:41;;;;;;;367.90;176.23;;;;;;;;;;4993497;28;20923;-71
2022/10/30 04:02:07;;;;;;;354.10;171.77;;;;;;;;;;4995091;28;20989;-71
2022/10/30 04:04:33;;;;;;;389.60;189.17;;;;;;;;;;4988001;28;20376;-71
2022/10/30 04:06:59;;;;;;;416.57;211.07;;;;;;;;;;4998593;28;20370;-71
2022/10/30 04:09:25;;;;;;;353.77;172.97;;;;;;;;;;4991166;28;20420;-71
2022/10/30 04:11:51;;;;;;;380.47;187.70;;;;;;;;;;4989719;28;20185;-71
2022/10/30 04:14:17;;;;;;;376.23;186.73;;;;;;;;;;4980551;28;20215;-70
2022/10/30 04:16:43;;;;;;;383.37;193.27;;;;;;;;;;4989065;28;20239;-71
2022/10/30 04:19:08;;;;;;;376.53;191.37;;;;;;;;;;4996791;28;20209;-74
2022/10/30 04:21:34;;;;;;;356.37;181.80;;;;;;;;;;4988890;28;20266;-73
2022/10/30 04:24:00;;;;;;;368.03;188.67;;;;;;;;;;4982335;28;20673;-74
2022/10/30 04:26:26;;;;;;;404.67;202.47;;;;;;;;;;4983795;28;21021;-74
2022/10/30 04:28:52;;;;;;;403.57;201.93;;;;;;;;;;4998026;28;20246;-74
2022/10/30 04:31:18;;;;;;;365.27;177.97;;;;;;;;;;5023727;28;20357;-74
2022/10/30 04:33:44;;;;;;;380.23;190.10;;;;;;;;;;5016644;28;21573;-74
2022/10/30 04:36:10;;;;;;;397.33;202.93;;;;;;;;;;4994653;28;20734;-74
2022/10/30 04:38:36;;;;;;;351.40;175.70;;;;;;;;;;4993431;28;21200;-74
2022/10/30 04:41:02;;;;;;;401.87;206.13;;;;;;;;;;5013653;28;21779;-74
2022/10/30 04:43:28;;;;;;;361.00;181.03;;;;;;;;;;5004025;28;20694;-74
2022/10/30 04:45:54;;;;;;;335.60;165.87;;;;;;;;;;4998013;28;20555;-74
2022/10/30 04:48:20;;;;;;;399.60;202.03;;;;;;;;;;5000600;28;20246;-73
2022/10/30 04:50:46;;;;;;;374.00;182.70;;;;;;;;;;5000273;28;20312;-74
2022/10/30 04:53:21;;;;;;;376.53;187.80;;;;;;;;;;5010872;28;20307;-74
2022/10/30 04:55:47;;;;;;;375.83;187.50;;;;;;;;;;4982513;28;20696;-73
2022/10/30 04:58:13;;;;;;;378.83;187.23;;;;;;;;;;4984827;28;20815;-74
2022/10/30 05:00:39;;;;;;;374.93;187.07;;;;;;;;;;4992773;28;20181;-73
2022/10/30 05:03:05;;;;;;;323.43;155.33;;;;;;;;;;5004484;28;20192;-74
2022/10/30 05:05:31;;;;;;;366.60;181.43;;;;;;;;;;4998089;28;20467;-73
2022/10/30 05:07:57;;;;;;;378.03;184.17;;;;;;;;;;5016817;28;20515;-74
2022/10/30 05:10:23;;;;;;;378.90;186.50;;;;;;;;;;5010531;28;20247;-74
2022/10/30 05:12:52;;;;;;;372.20;181.80;;;;;;;;;;4999846;28;20243;-74
2022/10/30 05:15:17;;;;;;;368.67;184.90;;;;;;;;;;4988033;28;20448;-74
2022/10/30 05:17:43;;;;;;;347.20;168.23;;;;;;;;;;5019668;28;20353;-73
2022/10/30 05:20:09;;;;;;;373.90;183.67;;;;;;;;;;5021042;28;20212;-74
2022/10/30 05:22:35;;;;;;;347.53;165.80;;;;;;;;;;5012207;28;21011;-74
2022/10/30 05:25:01;;;;;;;388.13;190.43;;;;;;;;;;5022498;28;21694;-74
2022/10/30 05:27:27;;;;;;;383.20;187.40;;;;;;;;;;5012344;28;20785;-74
2022/10/30 05:29:53;;;;;;;373.67;181.10;;;;;;;;;;5002663;28;20733;-74
2022/10/30 05:32:19;;;;;;;373.77;181.00;;;;;;;;;;5012573;28;20345;-74
2022/10/30 05:34:45;;;;;;;413.70;207.90;;;;;;;;;;5005341;28;20208;-74
2022/10/30 05:37:11;;;;;;;359.43;172.73;;;;;;;;;;5001989;28;20216;-73
2022/10/30 05:39:37;;;;;;;400.80;198.63;;;;;;;;;;5018526;28;20190;-74
2022/10/30 05:42:03;;;;;;;375.30;181.23;;;;;;;;;;5004823;28;21131;-74
2022/10/30 05:44:29;;;;;;;374.60;183.27;;;;;;;;;;5019155;28;20352;-74
2022/10/30 05:46:55;;;;;;;372.17;180.23;;;;;;;;;;5024437;28;20215;-73
2022/10/30 05:49:21;;;;;;;389.07;188.17;;;;;;;;;;5023198;28;20227;-74
2022/10/30 05:51:47;;;;;;;409.17;202.57;;;;;;;;;;5015331;28;20610;-74
2022/10/30 05:54:12;;;;;;;370.47;181.87;;;;;;;;;;5017659;28;20217;-71
2022/10/30 05:56:38;;;;;;;415.40;206.20;;;;;;;;;;5016478;28;20459;-71
2022/10/30 05:59:04;;;;;;;349.43;169.50;;;;;;;;;;5019404;28;20222;-71
2022/10/30 06:01:30;;;;;;;335.93;158.63;;;;;;;;;;5040207;28;20468;-71
2022/10/30 06:03:57;;;;;;;399.93;194.90;;;;;;;;;;5030239;28;20739;-71
2022/10/30 06:06:23;;;;;;;398.23;194.50;;;;;;;;;;5024412;28;20232;-71
2022/10/30 06:08:49;;;;;;;387.13;186.93;;;;;;;;;;5020378;28;20303;-72
2022/10/30 06:11:14;;;;;;;391.97;192.73;;;;;;;;;;5032237;28;20302;-72
2022/10/30 06:13:40;;;;;;;374.80;182.37;;;;;;;;;;5031793;28;20210;-73
2022/10/30 06:16:07;;;;;;;342.33;162.67;;;;;;;;;;5030966;28;20214;-73
2022/10/30 06:18:32;;;;;;;347.13;168.37;;;;;;;;;;5042285;28;20188;-75
2022/10/30 06:20:58;;;;;;;371.73;181.77;;;;;;;;;;5024258;28;20190;-79
2022/10/30 06:23:24;;;;;;;418.50;210.27;;;;;;;;;;5012128;28;20222;-72
2022/10/30 06:25:50;;;;;;;314.70;145.87;;;;;;;;;;5023971;28;20266;-74
2022/10/30 06:28:16;;;;;;;363.90;178.10;;;;;;;;;;5015786;28;20761;-74
2022/10/30 06:30:42;;;;;;;354.53;170.90;;;;;;;;;;5003092;28;20739;-73
2022/10/30 06:33:09;;;;;;;378.92;192.35;;;;;;;;;;5013886;28;20487;-75
2022/10/30 06:35:35;;;;;;;454.60;237.80;;;;;;;;;;4996072;28;20330;-76
2022/10/30 06:38:01;;;;;;;365.43;182.40;;;;;;;;;;4996303;28;20242;-76
2022/10/30 06:40:28;;;;;;;370.70;184.17;;;;;;;;;;4996436;28;20724;-76
2022/10/30 06:42:54;;;;;;;551.03;310.70;;;;;;;;;;4982808;28;21039;-76
2022/10/30 06:45:21;;;;;;;376.13;190.70;;;;;;;;;;4977171;28;20192;-75
2022/10/30 06:47:47;;;;;;;317.83;158.80;;;;;;;;;;4999746;28;20697;-75
2022/10/30 06:50:15;;;;;;;394.53;211.70;;;;;;;;;;4993341;28;20212;-76
2022/10/30 06:52:41;;;;;;;339.43;172.40;;;;;;;;;;4988727;28;20315;-76
2022/10/30 06:55:07;;;;;;;365.63;195.77;;;;;;;;;;4990565;28;20258;-75
2022/10/30 06:57:33;;;;;;;328.47;171.77;;;;;;;;;;4985441;28;20208;-76
2022/10/30 06:59:59;;;;;;;358.37;185.43;;;;;;;;;;5003198;28;20189;-75
2022/10/30 07:02:25;;;;;;;327.70;175.10;;;;;;;;;;4994563;28;20216;-75
2022/10/30 07:04:51;;;;;;;380.33;209.43;;;;;;;;;;4986683;28;20644;-75
2022/10/30 07:07:17;;;;;;;334.47;171.57;;;;;;;;;;4977846;28;20315;-75
2022/10/30 07:09:45;;;;;;;350.20;181.33;;;;;;;;;;4996440;28;20600;-76
2022/10/30 07:12:11;;;;;;;385.77;194.03;;;;;;;;;;4980520;28;20199;-76
2022/10/30 07:14:37;;;;;;;369.93;186.80;;;;;;;;;;4988482;28;20220;-65
2022/10/30 07:17:03;;;;;;;289.57;154.23;;;;;;;;;;4986609;28;20228;-65
2022/10/30 07:19:29;;;;;;;401.27;205.23;;;;;;;;;;4984749;28;20222;-64
2022/10/30 07:21:55;;;;;;;325.90;171.40;;;;;;;;;;4992363;28;20581;-65
2022/10/30 07:24:20;;;;;;;347.10;183.53;;;;;;;;;;4989396;28;20212;-65
2022/10/30 07:26:46;;;;;;;346.37;179.07;;;;;;;;;;5008385;28;22611;-64
2022/10/30 07:29:12;;;;;;;387.23;200.90;;;;;;;;;;4993194;28;20224;-64
2022/10/30 07:31:38;;;;;;;385.63;200.13;;;;;;;;;;5001935;28;20302;-65
2022/10/30 07:34:04;;;;;;;385.00;197.03;;;;;;;;;;5017095;28;20347;-64
2022/10/30 07:36:30;;;;;;;381.23;196.47;;;;;;;;;;4988518;28;20220;-64
2022/10/30 07:38:56;;;;;;;360.40;188.53;;;;;;;;;;5023840;28;20218;-65
2022/10/30 07:41:22;;;;;;;347.40;180.40;;;;;;;;;;5028348;28;20349;-64
2022/10/30 07:43:48;;;;;;;336.20;176.47;;;;;;;;;;5014127;28;20223;-64
2022/10/30 07:46:14;;;;;;;344.63;188.50;;;;;;;;;;5021499;28;20222;-65
2022/10/30 07:48:40;;;;;;;317.80;175.87;;;;;;;;;;5017158;28;20203;-64
2022/10/30 07:51:06;;;;;;;325.87;180.10;;;;;;;;;;5016501;28;20179;-64
2022/10/30 07:53:32;;;;;;;330.03;171.13;;;;;;;;;;5015733;28;21803;-64
2022/10/30 07:55:58;;;;;;;305.60;164.10;;;;;;;;;;5020762;28;20976;-64
2022/10/30 07:58:24;;;;;;;278.53;151.07;;;;;;;;;;5025794;28;20208;-63
2022/10/30 08:00:50;;;;;;;315.77;165.77;;;;;;;;;;5027977;28;20999;-78
2022/10/30 08:03:16;;;;;;;294.77;154.93;;;;;;;;;;5045459;28;20187;-78
2022/10/30 08:05:42;;;;;;;290.47;156.33;;;;;;;;;;5055689;28;20212;-78
2022/10/30 08:08:08;;;;;;;298.87;162.50;;;;;;;;;;5043962;28;20226;-79
2022/10/30 08:10:34;;;;;;;321.07;170.50;;;;;;;;;;5038478;28;20299;-79
2022/10/30 08:13:00;;;;;;;344.23;185.77;;;;;;;;;;5040181;28;20337;-79
2022/10/30 08:15:27;;;;;;;299.77;164.80;;;;;;;;;;5044859;28;20187;-75
2022/10/30 08:17:53;;;;;;;368.00;193.37;;;;;;;;;;5026488;28;20215;-74
2022/10/30 08:20:20;;;;;;;328.13;169.53;;;;;;;;;;5032199;28;20226;-74
2022/10/30 08:22:47;;;;;;;351.30;181.80;;;;;;;;;;5025860;28;20707;-73
2022/10/30 08:25:14;;;;;;;316.03;163.10;;;;;;;;;;5035459;28;20219;-73
2022/10/30 08:27:40;;;;;;;312.23;169.90;;;;;;;;;;5035165;28;20207;-73
2022/10/30 08:30:06;;;;;;;306.73;165.57;;;;;;;;;;5032154;28;20171;-74
2022/10/30 08:32:32;;;;;;;351.43;191.83;;;;;;;;;;5029553;28;21045;-74
2022/10/30 08:34:58;;;;;;;338.63;184.03;;;;;;;;;;5039806;28;21074;-74
2022/10/30 08:37:24;;;;;;;338.23;181.40;;;;;;;;;;5026198;28;20219;-78
2022/10/30 08:39:50;;;;;;;312.93;172.77;;;;;;;;;;5025717;28;20220;-77
2022/10/30 08:42:16;;;;;;;304.57;168.00;;;;;;;;;;5040813;28;20175;-73
2022/10/30 08:44:42;;;;;;;325.37;175.57;;;;;;;;;;5040344;28;20302;-65
2022/10/30 08:47:07;;;;;;;379.00;206.97;;;;;;;;;;5023898;28;20436;-74
2022/10/30 08:49:33;;;;;;;311.90;163.17;;;;;;;;;;5036862;28;20335;-71
2022/10/30 08:51:59;;;;;;;310.70;160.90;;;;;;;;;;5052343;28;20771;-78
2022/10/30 08:54:25;;;;;;;313.77;170.37;;;;;;;;;;5046548;28;20255;-74
2022/10/30 08:56:51;;;;;;;301.03;169.53;;;;;;;;;;5041544;28;20332;-76
2022/10/30 08:59:17;;;;;;;297.33;163.67;;;;;;;;;;5044795;28;20545;-77
2022/10/30 09:01:44;;;;;;;336.90;180.80;;;;;;;;;;5042513;28;20203;-81
2022/10/30 09:04:10;;;;;;;303.33;163.17;;;;;;;;;;5035498;28;20219;-77
2022/10/30 09:06:35;;;;;;;298.63;161.73;;;;;;;;;;5026362;28;20200;-78
2022/10/30 09:09:01;;;;;;;302.57;162.33;;;;;;;;;;5045917;28;20199;-78
2022/10/30 09:11:27;;;;;;;303.37;159.90;;;;;;;;;;5046821;28;20579;-78
2022/10/30 09:13:53;;;;;;;291.67;156.03;;;;;;;;;;5033834;28;20219;-78
2022/10/30 09:16:19;;;;;;;291.00;156.50;;;;;;;;;;5069468;28;20236;-78
2022/10/30 09:18:45;;;;;;;304.87;163.73;;;;;;;;;;5069243;28;20210;-77
2022/10/30 09:21:11;;;;;;;305.70;166.10;;;;;;;;;;5053090;28;20184;-77
2022/10/30 09:23:37;;;;;;;299.97;157.43;;;;;;;;;;5028587;28;20238;-77
2022/10/30 09:26:03;;;;;;;316.07;167.67;;;;;;;;;;5031182;28;20576;-78
2022/10/30 09:28:29;;;;;;;313.00;168.00;;;;;;;;;;5030848;28;20567;-77
2022/10/30 09:30:55;;;;;;;304.20;162.20;;;;;;;;;;5044554;28;20211;-78
2022/10/30 09:33:22;;;;;;;302.60;159.37;;;;;;;;;;5049641;28;20214;-77
2022/10/30 09:35:48;;;;;;;309.13;161.43;;;;;;;;;;5046873;28;20216;-78
2022/10/30 09:38:14;;;;;;;330.27;170.17;;;;;;;;;;5021271;28;20220;-77
2022/10/30 09:40:45;;;;;;;322.27;161.70;;;;;;;;;;5040601;28;20207;-78
2022/10/30 09:43:11;;;;;;;342.50;176.13;;;;;;;;;;5048545;28;20242;-77
2022/10/30 09:45:40;;;;;;;336.57;166.13;;;;;;;;;;5048583;28;20219;-77
2022/10/30 09:48:09;;;;;;;331.33;165.90;;;;;;;;;;5048869;28;20244;-78
2022/10/30 09:50:45;;;;;;;342.00;174.23;;;;;;;;;;5048545;28;20211;-77
2022/10/30 09:53:11;;;;;;;334.47;169.53;;;;;;;;;;5049594;28;20246;-78
2022/10/30 09:55:50;;;;;;;337.13;170.33;;;;;;;;;;5047767;28;20219;-77
2022/10/30 09:58:30;;;;;;;342.97;172.87;;;;;;;;;;5048139;28;20226;-77
2022/10/30 10:01:02;;;;;;;342.07;175.73;;;;;;;;;;5048436;28;20683;-78
2022/10/30 10:03:34;;;;;;;333.47;168.33;;;;;;;;;;5044023;28;20180;-78
2022/10/30 10:06:01;;;;;;;339.50;173.00;;;;;;;;;;5049641;28;20537;-78
2022/10/30 10:08:33;;;;;;;334.90;177.30;;;;;;;;;;5040557;28;20232;-78
2022/10/30 10:11:10;;;;;;;331.57;173.87;;;;;;;;;;5043118;28;20597;-77
2022/10/30 10:13:38;;;;;;;336.47;179.67;;;;;;;;;;5028564;28;20692;-78
2022/10/30 10:16:13;;;;;;;344.33;183.23;;;;;;;;;;5047541;28;20250;-77
2022/10/30 10:18:44;;;;;;;333.60;177.60;;;;;;;;;;5047833;28;20266;-78
2022/10/30 10:21:15;;;;;;;350.70;190.73;;;;;;;;;;5045556;28;20633;-78
2022/10/30 10:23:47;;;;;;;376.77;199.20;;;;;;;;;;5047391;28;20294;-77
2022/10/30 10:26:28;;;;;;;369.50;197.77;;;;;;;;;;5019537;28;24412;-79
2022/10/30 10:29:13;;;;;;;345.53;185.87;;;;;;;;;;5034337;28;20316;-77
2022/10/30 10:31:46;;;;;;;344.23;182.38;;;;;;;;;;5041345;28;20683;-79
2022/10/30 10:34:24;;;;;;;350.25;193.45;;;;;;;;;;5045475;28;20215;-78
2022/10/30 10:37:06;;;;;;;363.27;200.17;;;;;;;;;;5051333;28;20219;-78
2022/10/30 10:39:50;;;;;;;353.43;197.97;;;;;;;;;;5045396;28;20184;-78
2022/10/30 10:42:35;;;;;;;350.47;184.80;;;;;;;;;;5055325;28;20384;-78
2022/10/30 10:45:14;;;;;;;322.85;169.15;;;;;;;;;;5044334;28;20307;-78
2022/10/30 10:47:59;;;;;;;364.43;197.27;;;;;;;;;;5031310;28;20250;-78
2022/10/30 10:50:31;;;;;;;367.83;204.07;;;;;;;;;;5030248;28;21856;-79
2022/10/30 10:53:00;;;;;;;366.58;207.23;;;;;;;;;;5040859;28;20219;-79
2022/10/30 10:55:35;;;;;;;376.57;207.67;;;;;;;;;;5019009;28;20235;-81
2022/10/30 10:58:05;;;;;;;360.15;202.13;;;;;;;;;;5035577;28;20230;-78
2022/10/30 11:00:31;;;;;;;359.58;204.40;;;;;;;;;;5020526;28;20219;-80
2022/10/30 11:03:06;;;;;;;382.60;218.85;;;;;;;;;;5031732;28;20214;-77
2022/10/30 11:05:33;;;;;;;367.55;208.52;;;;;;;;;;5041989;28;20207;-76
2022/10/30 11:08:03;;;;;;;385.47;219.40;;;;;;;;;;5032570;28;20223;-76
2022/10/30 11:10:29;;;;;;;416.55;236.20;;;;;;;;;;4998585;28;20231;-79
2022/10/30 11:12:55;;;;;;;395.00;228.68;;;;;;;;;;5002599;28;20315;-76
2022/10/30 11:15:41;;;;;;;390.58;222.43;;;;;;;;;;5014976;28;20203;-78
2022/10/30 11:18:08;;;;;;;356.00;199.20;;;;;;;;;;5019733;28;20227;-77
2022/10/30 11:20:36;;;;;;;360.47;197.13;;;;;;;;;;5029278;28;20236;-79
2022/10/30 11:23:02;;;;;;;406.85;226.00;;;;;;;;;;5002083;28;20212;-82
2022/10/30 11:25:37;;;;;;;410.00;233.40;;;;;;;;;;5009750;28;20296;-64
2022/10/30 11:28:04;;;;;;;429.67;240.75;;;;;;;;;;4981225;28;20232;-63
2022/10/30 11:30:31;;;;;;;418.65;240.25;;;;;;;;;;4999208;28;20281;-64
2022/10/30 11:32:58;;;;;;;377.85;210.73;;;;;;;;;;5001534;28;20188;-63
2022/10/30 11:35:24;;;;;;;348.92;193.40;;;;;;;;;;5026996;28;20227;-63
2022/10/30 11:37:52;;;;;;;382.55;214.35;;;;;;;;;;5017343;28;20806;-63
2022/10/30 11:40:19;;;;;;;416.75;240.02;;;;;;;;;;5029771;28;20214;-63
2022/10/30 11:42:57;;;;;;;396.98;233.52;;;;;;;;;;5023601;28;20303;-63
2022/10/30 11:45:25;;;;;;;370.75;215.82;;;;;;;;;;5029520;28;20187;-63
2022/10/30 11:47:52;;;;;;;370.10;210.77;;;;;;;;;;5056089;28;20234;-63
2022/10/30 11:50:19;;;;;;;390.70;226.13;;;;;;;;;;5019276;28;20208;-63
2022/10/30 11:52:47;;;;;;;408.38;239.05;;;;;;;;;;5013722;28;20291;-64
2022/10/30 11:55:18;;;;;;;393.27;234.13;;;;;;;;;;5007039;28;20239;-64
2022/10/30 11:57:46;;;;;;;398.15;233.45;;;;;;;;;;4974626;28;20255;-63
2022/10/30 12:00:25;;;;;;;416.05;248.95;;;;;;;;;;4995532;28;20185;-63
2022/10/30 12:02:53;;;;;;;416.15;255.00;;;;;;;;;;4982692;28;20621;-63
2022/10/30 12:05:25;;;;;;;461.00;281.52;;;;;;;;;;4993016;28;20237;-63
2022/10/30 12:07:55;;;;;;;433.08;265.02;;;;;;;;;;4987018;28;20217;-63
2022/10/30 12:10:25;;;;;;;406.25;249.23;;;;;;;;;;4994542;28;20227;-64
2022/10/30 12:12:51;;;;;;;433.95;263.10;;;;;;;;;;4997091;28;20443;-63
2022/10/30 12:15:19;;;;;;;436.45;264.15;;;;;;;;;;4986074;28;20195;-64
2022/10/30 12:17:52;;;;;;;398.95;238.25;;;;;;;;;;4999875;28;20229;-63
2022/10/30 12:20:18;;;;;;;427.75;255.90;;;;;;;;;;4989224;28;20208;-63
2022/10/30 12:22:44;;;;;;;384.95;230.80;;;;;;;;;;5002150;28;20577;-63
2022/10/30 12:25:23;;;;;;;368.48;222.45;;;;;;;;;;5011406;28;20263;-63
2022/10/30 12:27:51;;;;;;;475.35;291.83;;;;;;;;;;4982278;28;20220;-66
2022/10/30 12:30:20;;;;;;;392.73;242.30;;;;;;;;;;4997149;28;20183;-63
2022/10/30 12:32:46;;;;;;;408.25;252.43;;;;;;;;;;5028587;28;20855;-64
2022/10/30 12:35:17;;;;;;;416.10;258.10;;;;;;;;;;5027285;28;20207;-63
2022/10/30 12:37:43;;;;;;;444.73;275.75;;;;;;;;;;5019419;28;20234;-66
2022/10/30 12:40:18;;;;;;;370.15;230.95;;;;;;;;;;5015398;28;20208;-65
2022/10/30 12:43:00;;;;;;;387.52;239.30;;;;;;;;;;5026010;28;20571;-64
2022/10/30 12:45:29;;;;;;;408.52;252.23;;;;;;;;;;5022693;28;20242;-65
2022/10/30 12:48:13;;;;;;;401.35;251.13;;;;;;;;;;5021330;28;21270;-66
2022/10/30 12:50:58;;;;;;;385.30;244.00;;;;;;;;;;5021244;28;20215;-66
2022/10/30 12:53:27;;;;;;;395.23;253.45;;;;;;;;;;5027646;28;20710;-64
2022/10/30 12:56:06;;;;;;;415.10;270.88;;;;;;;;;;5026846;28;20214;-63
2022/10/30 12:58:32;;;;;;;409.42;279.65;;;;;;;;;;5006009;28;20219;-64
2022/10/30 13:00:58;;;;;;;412.27;289.02;;;;;;;;;;5005324;28;20223;-63
2022/10/30 13:03:35;;;;;;;384.58;277.27;;;;;;;;;;4997420;28;20605;-63
2022/10/30 13:06:01;;;;;;;401.73;291.23;;;;;;;;;;4998660;28;21052;-67
2022/10/30 13:08:37;;;;;;;416.45;305.83;;;;;;;;;;4999084;28;20256;-63
2022/10/30 13:11:07;;;;;;;414.70;304.98;;;;;;;;;;5000943;28;20715;-63
2022/10/30 13:13:35;;;;;;;383.48;293.00;;;;;;;;;;5008180;28;20472;-68
2022/10/30 13:16:03;;;;;;;406.67;318.50;;;;;;;;;;4998835;28;20307;-66
2022/10/30 13:18:31;;;;;;;396.35;314.80;;;;;;;;;;5002533;28;20187;-63
2022/10/30 13:21:03;;;;;;;417.30;326.20;;;;;;;;;;5000532;28;21230;-64
2022/10/30 13:23:34;;;;;;;428.45;342.23;;;;;;;;;;4995860;28;20220;-67
2022/10/30 13:26:06;;;;;;;418.08;328.85;;;;;;;;;;4997374;28;20216;-76
2022/10/30 13:28:51;;;;;;;383.00;314.75;;;;;;;;;;5018120;28;20228;-74
2022/10/30 13:31:24;;;;;;;396.15;318.65;;;;;;;;;;5020715;28;20223;-76
2022/10/30 13:33:57;;;;;;;407.15;340.23;;;;;;;;;;5014284;28;20216;-75
2022/10/30 13:36:35;;;;;;;386.58;319.55;;;;;;;;;;5007553;28;20576;-72
2022/10/30 13:39:16;;;;;;;395.77;333.90;;;;;;;;;;5000614;28;20191;-79
2022/10/30 13:41:59;;;;;;;434.23;367.55;;;;;;;;;;4985768;28;20644;-77
2022/10/30 13:44:45;;;;;;;457.70;371.92;;;;;;;;;;4970770;28;20541;-74
2022/10/30 13:47:19;;;;;;;446.88;367.67;;;;;;;;;;4980995;28;20225;-79
2022/10/30 13:49:59;;;;;;;411.42;335.58;;;;;;;;;;5005127;28;20235;-79
2022/10/30 13:52:27;;;;;;;441.02;355.75;;;;;;;;;;5007884;28;20746;-75
2022/10/30 13:54:58;;;;;;;407.08;340.85;;;;;;;;;;5007778;28;20804;-72
2022/10/30 13:57:29;;;;;;;491.30;419.70;;;;;;;;;;4987895;28;20613;-76